Newville, Pennsylvania
Current Conditions -  °F | °C
As of 10:04 AM on Wednesday 26 Nov 2014 (Local Time) from KCXY Reporting Station
Light Snow Light Snow  
Wind Chill: 33°   Ceiling: 600
Heat Index: 33°   Visibility: 0.75mi
Dew Point: 32°   Wind: 0mph
Humidity: 96%   Direction: NA
Pressure: 30.11"   Gusts: NA
Location:  40.17°N, 77.4°W
Report Text: KCXY 261504Z 00000KT 3/4SM R08/4500V6000FT -SN BR OVC006 01/00 A3011 RMK AO2 P0000 T00060000
Loading
Personal Weather Stations






























Interactive Weather Map New forecast layout! Learn more

10-Day Weather Forecast

Advertisements
Track Severe Weather on mobile